Weather reports worldwide

Advertisment
Glasgow/Intl, United Kingdom (3140): temperature & dewpoint: 14.10.2017 22:00:00 - 20.10.2017 22:00:00 (BST)Glasgow/Intl, United Kingdom (3140): wind speed: 14.10.2017 22:00:00 - 20.10.2017 22:00:00 (BST)Glasgow/Intl, United Kingdom (3140): wind direction: 14.10.2017 22:00:00 - 20.10.2017 22:00:00 (BST)Glasgow/Intl, United Kingdom (3140): visibility: 14.10.2017 22:00:00 - 20.10.2017 22:00:00 (BST)
Date & Time tt [°C] td [°C] ff [km/h] ff [kn] dd vv [km]
20.10.2017 22:00:00 11,0 8,0 18 10 E 10
20.10.2017 21:00:00 11,0 8,0 13 7 ESE 10
20.10.2017 20:00:00 11,0 8,0 15 8 SSE 10
20.10.2017 19:00:00 12,0 10,0 9 5 SSE 10
20.10.2017 18:00:00 12,0 11,0 11 6 SSW 10
20.10.2017 17:00:00 14,0 11,0 15 8 SSW 10
20.10.2017 16:00:00 14,0 11,0 9 5 SSE 10
20.10.2017 15:00:00 15,0 11,0 18 10 S 10
20.10.2017 14:00:00 15,0 11,0 13 7 S 10
20.10.2017 13:00:00 14,0 11,0 8 4 SSW 10
20.10.2017 12:00:00 14,0 12,0 9 5 WSW 10
20.10.2017 11:00:00 13,0 12,0 8 4 W 10
20.10.2017 10:00:00 12,0 11,0 5 3 W 8
20.10.2017 09:00:00 11,0 10,0 2 1 - 6
20.10.2017 08:00:00 11,0 11,0 5 3 NW 9
20.10.2017 07:00:00 10,0 10,0 2 1 - 0,3
20.10.2017 06:00:00 11,0 11,0 2 1 - 3,0
20.10.2017 05:00:00 12,0 11,0 5 3 WSW 3,9
20.10.2017 04:00:00 12,0 11,0 0 0 N 4,0
20.10.2017 03:00:00 12,0 11,0 5 3 SSW 4,3
20.10.2017 02:00:00 12,0 11,0 5 3 WNW 3,1
20.10.2017 01:00:00 12,0 11,0 2 1 - 2,5
20.10.2017 00:00:00 12,0 11,0 2 1 NE 4,5
19.10.2017 23:00:00 12,0 11,0 8 4 E 5
19.10.2017 22:00:00 12,0 11,0 15 8 ENE 6
19.10.2017 21:00:00 12,0 11,0 16 9 ENE 6
19.10.2017 20:00:00 12,0 11,0 22 12 ENE 8
19.10.2017 19:00:00 12,0 11,0 18 10 ENE 9
19.10.2017 18:00:00 13,0 11,0 15 8 ENE 10
19.10.2017 17:00:00 14,0 11,0 16 9 E 10
19.10.2017 16:00:00 14,0 11,0 15 8 E 10
19.10.2017 15:00:00 14,0 11,0 15 8 E 10
19.10.2017 14:00:00 14,0 11,0 15 8 E 10
19.10.2017 13:00:00 13,0 11,0 18 10 E 10
19.10.2017 12:00:00 13,0 11,0 16 9 E 10
19.10.2017 11:00:00 13,0 11,0 15 8 E 10
19.10.2017 10:00:00 12,0 11,0 16 9 NE 10
19.10.2017 09:00:00 11,0 10,0 15 8 ENE 8
19.10.2017 08:00:00 11,0 10,0 15 8 ENE 6
19.10.2017 07:00:00 11,0 10,0 18 10 ENE 4,0
19.10.2017 06:00:00 11,0 10,0 16 9 E 2,8
19.10.2017 05:00:00 11,0 10,0 15 8 E 3,8
19.10.2017 04:00:00 11,0 9,0 15 8 E 9
19.10.2017 03:00:00 11,0 9,0 15 8 E 10
19.10.2017 02:00:00 11,0 9,0 18 10 ENE 10
19.10.2017 01:00:00 10,0 9,0 15 8 ENE 10
19.10.2017 00:00:00 10,0 8,0 16 9 E 10
18.10.2017 23:00:00 10,0 8,0 16 9 ENE 10
18.10.2017 22:00:00 10,0 8,0 16 9 ENE 10
18.10.2017 21:00:00 10,0 8,0 16 9 E 10
18.10.2017 20:00:00 10,0 8,0 16 9 ENE 10
18.10.2017 19:00:00 10,0 9,0 16 9 ENE 10
18.10.2017 18:00:00 10,0 9,0 16 9 ENE 10
18.10.2017 17:00:00 11,0 9,0 18 10 ENE 10
18.10.2017 16:00:00 11,0 9,0 21 11 ENE 10
18.10.2017 15:00:00 11,0 10,0 18 10 ENE 6
18.10.2017 14:00:00 11,0 10,0 16 9 E 4,5
18.10.2017 13:00:00 11,0 10,0 18 10 ENE 10
18.10.2017 12:00:00 11,0 10,0 15 8 ENE 10
18.10.2017 11:00:00 10,0 9,0 15 8 ENE 10
18.10.2017 10:00:00 9,0 9,0 16 9 ENE 5
18.10.2017 09:00:00 9,0 8,0 15 8 E 9
18.10.2017 08:00:00 9,0 8,0 16 9 ENE 8
18.10.2017 07:00:00 9,0 8,0 18 10 ENE 6
18.10.2017 06:00:00 9,0 8,0 11 6 E 8
18.10.2017 05:00:00 10,0 8,0 15 8 ENE 10
18.10.2017 04:00:00 10,0 8,0 16 9 E 9
18.10.2017 03:00:00 10,0 9,0 15 8 E 10
18.10.2017 02:00:00 10,0 9,0 15 8 E 4,0
18.10.2017 01:00:00 10,0 10,0 21 11 E 4,0
18.10.2017 00:00:00 10,0 10,0 4 2 NE 2,1
17.10.2017 23:00:00 10,0 10,0 2 1 NNE 10
17.10.2017 22:00:00 11,0 10,0 5 3 - 9
17.10.2017 21:00:00 10,0 9,0 4 2 SW 3,5
17.10.2017 20:00:00 10,0 9,0 9 5 SW 10
17.10.2017 19:00:00 11,0 9,0 15 8 WSW 10
17.10.2017 18:00:00 12,0 10,0 15 8 WSW 10
17.10.2017 17:00:00 13,0 9,0 22 12 WSW 10
17.10.2017 16:00:00 13,0 10,0 26 14 WSW 10
17.10.2017 15:00:00 13,0 10,0 28 15 WSW 10
17.10.2017 14:00:00 13,0 10,0 26 14 WSW 10
17.10.2017 13:00:00 14,0 10,0 34 18 WSW 10
17.10.2017 12:00:00 14,0 12,0 31 17 WSW 10
17.10.2017 11:00:00 13,0 11,0 34 18 WSW 10
17.10.2017 10:00:00 12,0 11,0 41 22 SW 10
17.10.2017 09:00:00 13,0 11,0 35 19 WSW 10
17.10.2017 08:00:00 13,0 11,0 46 25 WSW 5
17.10.2017 07:00:00 13,0 11,0 46 25 WSW 10
17.10.2017 06:00:00 13,0 11,0 48 26 WSW 7
17.10.2017 05:00:00 12,0 11,0 57 31 SW 6
17.10.2017 04:00:00 12,0 10,0 68 37 SW 3,4
17.10.2017 03:00:00 12,0 10,0 68 37 SSW 9
17.10.2017 02:00:00 14,0 10,0 63 34 SSW 6
17.10.2017 01:00:00 14,0 11,0 54 29 SSW 10
17.10.2017 00:00:00 14,0 11,0 39 21 S 10
16.10.2017 23:00:00 14,0 11,0 39 21 S 10
16.10.2017 22:00:00 13,0 12,0 29 16 S 7
16.10.2017 21:00:00 14,0 11,0 37 20 SSE 9
16.10.2017 20:00:00 14,0 10,0 35 19 SSE 10
16.10.2017 19:00:00 13,0 10,0 31 17 SE 10
16.10.2017 18:00:00 14,0 10,0 21 11 SE 10
16.10.2017 17:00:00 16,0 9,0 28 15 SSE 10
16.10.2017 16:00:00 16,0 13,0 26 14 ESE 10
16.10.2017 15:00:00 15,0 12,0 26 14 E 10
16.10.2017 14:00:00 13,0 12,0 34 18 E 9
16.10.2017 13:00:00 12,0 11,0 26 14 E 10
16.10.2017 12:00:00 12,0 11,0 31 17 ENE 10
16.10.2017 11:00:00 11,0 10,0 31 17 ENE 10
16.10.2017 10:00:00 11,0 10,0 24 13 ENE 7
16.10.2017 09:00:00 11,0 10,0 11 6 E 3,4
16.10.2017 08:00:00 10,0 10,0 9 5 ENE 2,8
16.10.2017 07:00:00 10,0 9,0 8 4 NE 3,1
16.10.2017 06:00:00 10,0 9,0 8 4 NE 10
16.10.2017 05:00:00 10,0 9,0 9 5 E 10
16.10.2017 04:00:00 10,0 9,0 4 2 - 10
16.10.2017 03:00:00 10,0 9,0 4 2 - 10
16.10.2017 02:00:00 10,0 9,0 2 1 - 10
16.10.2017 01:00:00 10,0 9,0 2 1 - 10
16.10.2017 00:00:00 11,0 9,0 5 3 W 10
15.10.2017 23:00:00 11,0 8,0 4 2 - 10
15.10.2017 22:00:00 11,0 8,0 2 1 - 10
15.10.2017 21:00:00 11,0 8,0 8 4 SW 10
15.10.2017 20:00:00 11,0 8,0 8 4 SW 10
15.10.2017 19:00:00 12,0 8,0 11 6 W 10
15.10.2017 18:00:00 12,0 8,0 15 8 W 10
15.10.2017 17:00:00 13,0 10,0 21 11 W 10
15.10.2017 16:00:00 14,0 10,0 34 18 WSW 10
15.10.2017 15:00:00 16,0 13,0 39 21 SW 10
15.10.2017 14:00:00 17,0 14,0 41 22 SSW 10
15.10.2017 13:00:00 18,0 14,0 41 22 SSW 10
15.10.2017 12:00:00 16,0 13,0 34 18 S 10
15.10.2017 11:00:00 15,0 12,0 37 20 SSW 10
15.10.2017 10:00:00 15,0 12,0 29 16 S 10
15.10.2017 09:00:00 15,0 11,0 16 9 S 10
15.10.2017 08:00:00 15,0 11,0 16 9 S 10
15.10.2017 07:00:00 15,0 11,0 15 8 S 10
15.10.2017 06:00:00 15,0 11,0 26 14 S 10
15.10.2017 05:00:00 15,0 11,0 21 11 S 10
15.10.2017 04:00:00 15,0 11,0 35 19 S 10
15.10.2017 03:00:00 15,0 12,0 24 13 S 10
15.10.2017 02:00:00 15,0 12,0 29 16 S 10
15.10.2017 01:00:00 15,0 12,0 26 14 S 10
15.10.2017 00:00:00 15,0 12,0 28 15 S 10
14.10.2017 23:00:00 15,0 13,0 15 8 S 10
14.10.2017 22:00:00 13,0 12,0 11 6 ESE 10

tt = temperature
td = dewpoint
ff = wind speed
dd = wind direction
vv = visibility

Next stations